PWSweather.com
Personal Weather Stations
Station Observations
WD4JKH
Forsyth, GA 31029

Forsyth, GA 31029

Lat: 33.033225, Lon: -83.927995

Elevation: 709

Station Type: Davis Vantage VUE

High Low Average
Temperature 87.7°F30.9°C 72.1°F22.3°C 78.8°F26.0°C
Dew Point 76.8°F24.9°C 69.9°F21.1°C 73.5°F23.1°C
Winds 7.0 mph 11.3 kmh Calm Calm 3.0 mph SW4.8 kmh SW
Wind Gusts 20.0 mph32.2 kmh 2.0 mph3.2 kmh 9.0 mph14.5 kmh
Humidity 97% 62% 85%
Pressure 29.93 in1013.5 mb 29.80 in1009.1 mb -
Precipitation 0.17 in4.3 mm - -
Hour Temp Dew Point Humidity Winds Wind Gusts Pressure Precip Precip Rate Daily Precip Total
12:01 AM 74.2°F23.4°C 72.4°F22.4°C 94% 2.8 mph SW4.5 kmh SW 5.0 mph8.0 kmh 29.82 in1009.8 mb 0.00 in0.0 mm 0.00 in0.0 mm 0.46 in11.7 mm
12:06 AM 74.1°F23.4°C 71.9°F22.2°C 93% 1.4 mph SW2.3 kmh SW 5.0 mph8.0 kmh 29.82 in1009.8 mb 0.00 in0.0 mm 0.00 in0.0 mm 0.00 in0.0 mm
12:11 AM 74.0°F23.3°C 72.2°F22.3°C 94% 1.2 mph SW1.9 kmh SW 5.0 mph8.0 kmh 29.82 in1009.8 mb 0.00 in0.0 mm 0.00 in0.0 mm 0.00 in0.0 mm
12:16 AM 73.9°F23.3°C 72.0°F22.2°C 94% 1.7 mph SW2.7 kmh SW 5.0 mph8.0 kmh 29.82 in1009.8 mb 0.00 in0.0 mm 0.00 in0.0 mm 0.00 in0.0 mm
12:21 AM 73.9°F23.3°C 72.0°F22.2°C 94% 1.7 mph SW2.7 kmh SW 7.0 mph11.3 kmh 29.82 in1009.8 mb 0.00 in0.0 mm 0.00 in0.0 mm 0.00 in0.0 mm
12:26 AM 73.8°F23.2°C 71.9°F22.2°C 94% 2.0 mph SW3.2 kmh SW 7.0 mph11.3 kmh 29.82 in1009.8 mb 0.00 in0.0 mm 0.00 in0.0 mm 0.00 in0.0 mm
12:31 AM 73.7°F23.2°C 71.8°F22.1°C 94% 1.4 mph SW2.3 kmh SW 7.0 mph11.3 kmh 29.82 in1009.8 mb 0.00 in0.0 mm 0.00 in0.0 mm 0.00 in0.0 mm
12:36 AM 73.5°F23.1°C 71.6°F22.0°C 94% 1.3 mph SW2.1 kmh SW 7.0 mph11.3 kmh 29.82 in1009.8 mb 0.00 in0.0 mm 0.00 in0.0 mm 0.00 in0.0 mm
12:40 AM 73.3°F22.9°C 71.4°F21.9°C 94% 1.2 mph WSW1.9 kmh WSW 5.0 mph8.0 kmh 29.82 in1009.8 mb 0.00 in0.0 mm 0.00 in0.0 mm 0.00 in0.0 mm
12:45 AM 73.3°F22.9°C 71.8°F22.1°C 95% 1.7 mph SW2.7 kmh SW 5.0 mph8.0 kmh 29.82 in1009.8 mb 0.00 in0.0 mm 0.00 in0.0 mm 0.00 in0.0 mm
12:50 AM 73.2°F22.9°C 71.7°F22.1°C 95% 1.4 mph SW2.3 kmh SW 5.0 mph8.0 kmh 29.82 in1009.8 mb 0.00 in0.0 mm 0.00 in0.0 mm 0.00 in0.0 mm
12:55 AM 73.2°F22.9°C 71.7°F22.1°C 95% 1.9 mph SW3.1 kmh SW 5.0 mph8.0 kmh 29.82 in1009.8 mb 0.00 in0.0 mm 0.00 in0.0 mm 0.00 in0.0 mm
01:00 AM 73.1°F22.8°C 71.6°F22.0°C 95% 1.3 mph SW2.1 kmh SW 5.0 mph8.0 kmh 29.82 in1009.8 mb 0.00 in0.0 mm 0.00 in0.0 mm 0.00 in0.0 mm
01:05 AM 73.1°F22.8°C 71.6°F22.0°C 95% 1.6 mph SW2.6 kmh SW 5.0 mph8.0 kmh 29.82 in1009.8 mb 0.00 in0.0 mm 0.00 in0.0 mm 0.00 in0.0 mm
01:10 AM 73.0°F22.8°C 71.5°F21.9°C 95% Calm Calm 5.0 mph8.0 kmh 29.82 in1009.8 mb 0.00 in0.0 mm 0.00 in0.0 mm 0.00 in0.0 mm
01:15 AM 72.9°F22.7°C 71.4°F21.9°C 95% 1.9 mph SW3.1 kmh SW 6.0 mph9.7 kmh 29.82 in1009.8 mb 0.00 in0.0 mm 0.00 in0.0 mm 0.00 in0.0 mm
01:20 AM 72.9°F22.7°C 71.4°F21.9°C 95% 1.4 mph SW2.3 kmh SW 6.0 mph9.7 kmh 29.82 in1009.8 mb 0.00 in0.0 mm 0.00 in0.0 mm 0.00 in0.0 mm
01:25 AM 72.8°F22.7°C 71.3°F21.8°C 95% 1.5 mph SW2.4 kmh SW 6.0 mph9.7 kmh 29.82 in1009.8 mb 0.00 in0.0 mm 0.00 in0.0 mm 0.00 in0.0 mm
01:30 AM 72.8°F22.7°C 71.3°F21.8°C 95% 1.4 mph SW2.3 kmh SW 6.0 mph9.7 kmh 29.82 in1009.8 mb 0.00 in0.0 mm 0.00 in0.0 mm 0.00 in0.0 mm
01:35 AM 72.8°F22.7°C 71.3°F21.8°C 95% 2.6 mph SW4.2 kmh SW 6.0 mph9.7 kmh 29.82 in1009.8 mb 0.00 in0.0 mm 0.00 in0.0 mm 0.00 in0.0 mm
01:40 AM 72.8°F22.7°C 71.3°F21.8°C 95% 1.2 mph WSW1.9 kmh WSW 6.0 mph9.7 kmh 29.82 in1009.8 mb 0.00 in0.0 mm 0.00 in0.0 mm 0.00 in0.0 mm
01:45 AM 72.7°F22.6°C 71.2°F21.8°C 95% 1.9 mph SW3.1 kmh SW 6.0 mph9.7 kmh 29.82 in1009.8 mb 0.00 in0.0 mm 0.00 in0.0 mm 0.00 in0.0 mm
01:50 AM 72.7°F22.6°C 71.2°F21.8°C 95% 2.4 mph SW3.9 kmh SW 6.0 mph9.7 kmh 29.82 in1009.8 mb 0.00 in0.0 mm 0.00 in0.0 mm 0.00 in0.0 mm
01:55 AM 72.6°F22.6°C 71.4°F21.9°C 96% 1.8 mph SSW2.9 kmh SSW 6.0 mph9.7 kmh 29.82 in1009.8 mb 0.00 in0.0 mm 0.00 in0.0 mm 0.00 in0.0 mm
02:00 AM 72.6°F22.6°C 71.4°F21.9°C 96% 2.0 mph SW3.2 kmh SW 6.0 mph9.7 kmh 29.82 in1009.8 mb 0.00 in0.0 mm 0.00 in0.0 mm 0.00 in0.0 mm
02:05 AM 72.5°F22.5°C 71.3°F21.8°C 96% 2.2 mph SW3.5 kmh SW 6.0 mph9.7 kmh 29.83 in1010.2 mb 0.00 in0.0 mm 0.00 in0.0 mm 0.00 in0.0 mm
02:10 AM 72.5°F22.5°C 71.3°F21.8°C 96% 1.7 mph SSW2.7 kmh SSW 6.0 mph9.7 kmh 29.83 in1010.2 mb 0.00 in0.0 mm 0.00 in0.0 mm 0.00 in0.0 mm
02:15 AM 72.4°F22.4°C 71.2°F21.8°C 96% 1.4 mph SW2.3 kmh SW 6.0 mph9.7 kmh 29.82 in1009.8 mb 0.00 in0.0 mm 0.00 in0.0 mm 0.00 in0.0 mm
02:20 AM 72.4°F22.4°C 71.2°F21.8°C 96% 2.1 mph SW3.4 kmh SW 6.0 mph9.7 kmh 29.82 in1009.8 mb 0.00 in0.0 mm 0.00 in0.0 mm 0.00 in0.0 mm
02:25 AM 72.4°F22.4°C 71.2°F21.8°C 96% 1.9 mph SSW3.1 kmh SSW 6.0 mph9.7 kmh 29.82 in1009.8 mb 0.00 in0.0 mm 0.00 in0.0 mm 0.00 in0.0 mm
02:30 AM 72.4°F22.4°C 71.2°F21.8°C 96% 1.9 mph SW3.1 kmh SW 6.0 mph9.7 kmh 29.82 in1009.8 mb 0.00 in0.0 mm 0.00 in0.0 mm 0.00 in0.0 mm
02:35 AM 72.4°F22.4°C 71.2°F21.8°C 96% 1.1 mph SW1.8 kmh SW 6.0 mph9.7 kmh 29.81 in1009.5 mb 0.00 in0.0 mm 0.00 in0.0 mm 0.00 in0.0 mm
02:40 AM 72.4°F22.4°C 71.2°F21.8°C 96% 1.7 mph SW2.7 kmh SW 4.0 mph6.4 kmh 29.81 in1009.5 mb 0.00 in0.0 mm 0.00 in0.0 mm 0.00 in0.0 mm
02:45 AM 72.4°F22.4°C 71.2°F21.8°C 96% 1.4 mph SW2.3 kmh SW 4.0 mph6.4 kmh 29.81 in1009.5 mb 0.00 in0.0 mm 0.00 in0.0 mm 0.00 in0.0 mm
02:50 AM 72.4°F22.4°C 71.2°F21.8°C 96% 1.5 mph SW2.4 kmh SW 4.0 mph6.4 kmh 29.81 in1009.5 mb 0.00 in0.0 mm 0.00 in0.0 mm 0.00 in0.0 mm
02:55 AM 72.3°F22.4°C 71.1°F21.7°C 96% 2.0 mph SW3.2 kmh SW 5.0 mph8.0 kmh 29.81 in1009.5 mb 0.00 in0.0 mm 0.00 in0.0 mm 0.00 in0.0 mm
03:00 AM 72.3°F22.4°C 71.1°F21.7°C 96% 1.4 mph SW2.3 kmh SW 5.0 mph8.0 kmh 29.81 in1009.5 mb 0.00 in0.0 mm 0.00 in0.0 mm 0.00 in0.0 mm
03:05 AM 72.3°F22.4°C 71.1°F21.7°C 96% 1.5 mph SW2.4 kmh SW 5.0 mph8.0 kmh 29.81 in1009.5 mb 0.00 in0.0 mm 0.00 in0.0 mm 0.00 in0.0 mm
03:10 AM 72.3°F22.4°C 71.1°F21.7°C 96% 1.7 mph SW2.7 kmh SW 5.0 mph8.0 kmh 29.80 in1009.1 mb 0.00 in0.0 mm 0.00 in0.0 mm 0.00 in0.0 mm
03:15 AM 72.3°F22.4°C 71.1°F21.7°C 96% 1.5 mph SW2.4 kmh SW 4.0 mph6.4 kmh 29.80 in1009.1 mb 0.00 in0.0 mm 0.00 in0.0 mm 0.00 in0.0 mm
03:20 AM 72.3°F22.4°C 71.1°F21.7°C 96% 1.7 mph SW2.7 kmh SW 5.0 mph8.0 kmh 29.81 in1009.5 mb 0.00 in0.0 mm 0.00 in0.0 mm 0.00 in0.0 mm
03:25 AM 72.3°F22.4°C 71.1°F21.7°C 96% 1.9 mph SW3.1 kmh SW 5.0 mph8.0 kmh 29.81 in1009.5 mb 0.00 in0.0 mm 0.00 in0.0 mm 0.00 in0.0 mm
03:30 AM 72.3°F22.4°C 71.1°F21.7°C 96% 2.3 mph SSW3.7 kmh SSW 5.0 mph8.0 kmh 29.81 in1009.5 mb 0.00 in0.0 mm 0.00 in0.0 mm 0.00 in0.0 mm
03:35 AM 72.2°F22.3°C 71.0°F21.7°C 96% 1.9 mph SW3.1 kmh SW 5.0 mph8.0 kmh 29.81 in1009.5 mb 0.00 in0.0 mm 0.00 in0.0 mm 0.00 in0.0 mm
03:40 AM 72.2°F22.3°C 71.3°F21.8°C 97% 1.2 mph SW1.9 kmh SW 5.0 mph8.0 kmh 29.81 in1009.5 mb 0.00 in0.0 mm 0.00 in0.0 mm 0.00 in0.0 mm
03:45 AM 72.2°F22.3°C 71.3°F21.8°C 97% 2.1 mph SW3.4 kmh SW 7.0 mph11.3 kmh 29.81 in1009.5 mb 0.00 in0.0 mm 0.00 in0.0 mm 0.00 in0.0 mm
03:50 AM 72.2°F22.3°C 71.3°F21.8°C 97% 2.0 mph SW3.2 kmh SW 7.0 mph11.3 kmh 29.81 in1009.5 mb 0.00 in0.0 mm 0.00 in0.0 mm 0.00 in0.0 mm
03:55 AM 72.2°F22.3°C 71.3°F21.8°C 97% 2.1 mph SW3.4 kmh SW 7.0 mph11.3 kmh 29.81 in1009.5 mb 0.00 in0.0 mm 0.00 in0.0 mm 0.00 in0.0 mm
04:00 AM 72.2°F22.3°C 71.3°F21.8°C 97% 1.6 mph SW2.6 kmh SW 7.0 mph11.3 kmh 29.81 in1009.5 mb 0.00 in0.0 mm 0.00 in0.0 mm 0.00 in0.0 mm
04:05 AM 72.2°F22.3°C 71.3°F21.8°C 97% 1.9 mph SW3.1 kmh SW 5.0 mph8.0 kmh 29.81 in1009.5 mb 0.00 in0.0 mm 0.00 in0.0 mm 0.00 in0.0 mm
04:10 AM 72.2°F22.3°C 71.3°F21.8°C 97% 1.6 mph SSW2.6 kmh SSW 6.0 mph9.7 kmh 29.81 in1009.5 mb 0.00 in0.0 mm 0.00 in0.0 mm 0.00 in0.0 mm
04:15 AM 72.1°F22.3°C 71.2°F21.8°C 97% 2.7 mph SW4.3 kmh SW 6.0 mph9.7 kmh 29.81 in1009.5 mb 0.00 in0.0 mm 0.00 in0.0 mm 0.00 in0.0 mm
04:20 AM 72.1°F22.3°C 71.2°F21.8°C 97% 2.1 mph SW3.4 kmh SW 6.0 mph9.7 kmh 29.82 in1009.8 mb 0.00 in0.0 mm 0.00 in0.0 mm 0.00 in0.0 mm
04:25 AM 72.1°F22.3°C 71.2°F21.8°C 97% 1.2 mph SW1.9 kmh SW 6.0 mph9.7 kmh 29.82 in1009.8 mb 0.00 in0.0 mm 0.00 in0.0 mm 0.00 in0.0 mm
04:30 AM 72.1°F22.3°C 71.2°F21.8°C 97% 1.7 mph SW2.7 kmh SW 5.0 mph8.0 kmh 29.82 in1009.8 mb 0.00 in0.0 mm 0.00 in0.0 mm 0.00 in0.0 mm
04:35 AM 72.1°F22.3°C 71.2°F21.8°C 97% 1.7 mph SW2.7 kmh SW 5.0 mph8.0 kmh 29.82 in1009.8 mb 0.00 in0.0 mm 0.00 in0.0 mm 0.00 in0.0 mm
04:40 AM 72.1°F22.3°C 71.2°F21.8°C 97% 1.7 mph SW2.7 kmh SW 6.0 mph9.7 kmh 29.82 in1009.8 mb 0.00 in0.0 mm 0.00 in0.0 mm 0.00 in0.0 mm
04:45 AM 72.2°F22.3°C 71.3°F21.8°C 97% 1.5 mph SW2.4 kmh SW 6.0 mph9.7 kmh 29.82 in1009.8 mb 0.00 in0.0 mm 0.00 in0.0 mm 0.00 in0.0 mm
04:50 AM 72.2°F22.3°C 71.3°F21.8°C 97% 2.7 mph SW4.3 kmh SW 9.0 mph14.5 kmh 29.82 in1009.8 mb 0.00 in0.0 mm 0.00 in0.0 mm 0.00 in0.0 mm
04:55 AM 72.4°F22.4°C 71.5°F21.9°C 97% 2.0 mph SW3.2 kmh SW 9.0 mph14.5 kmh 29.82 in1009.8 mb 0.00 in0.0 mm 0.00 in0.0 mm 0.00 in0.0 mm
05:00 AM 72.5°F22.5°C 71.6°F22.0°C 97% 2.3 mph SW3.7 kmh SW 9.0 mph14.5 kmh 29.82 in1009.8 mb 0.00 in0.0 mm 0.00 in0.0 mm 0.00 in0.0 mm
05:05 AM 72.6°F22.6°C 71.7°F22.1°C 97% 3.6 mph SW5.8 kmh SW 9.0 mph14.5 kmh 29.82 in1009.8 mb 0.00 in0.0 mm 0.00 in0.0 mm 0.00 in0.0 mm
05:10 AM 72.7°F22.6°C 71.8°F22.1°C 97% 1.4 mph SW2.3 kmh SW 8.0 mph12.9 kmh 29.83 in1010.2 mb 0.00 in0.0 mm 0.00 in0.0 mm 0.00 in0.0 mm
05:15 AM 72.8°F22.7°C 71.9°F22.2°C 97% 3.1 mph SW5.0 kmh SW 9.0 mph14.5 kmh 29.83 in1010.2 mb 0.00 in0.0 mm 0.00 in0.0 mm 0.00 in0.0 mm
05:20 AM 72.9°F22.7°C 72.0°F22.2°C 97% 3.5 mph SW5.6 kmh SW 9.0 mph14.5 kmh 29.83 in1010.2 mb 0.00 in0.0 mm 0.00 in0.0 mm 0.00 in0.0 mm
05:25 AM 73.0°F22.8°C 72.1°F22.3°C 97% 2.1 mph WSW3.4 kmh WSW 12.0 mph19.3 kmh 29.83 in1010.2 mb 0.00 in0.0 mm 0.00 in0.0 mm 0.00 in0.0 mm
05:30 AM 73.1°F22.8°C 72.2°F22.3°C 97% 2.3 mph WSW3.7 kmh WSW 13.0 mph20.9 kmh 29.83 in1010.2 mb 0.00 in0.0 mm 0.00 in0.0 mm 0.00 in0.0 mm
05:35 AM 73.2°F22.9°C 72.3°F22.4°C 97% 2.6 mph WSW4.2 kmh WSW 13.0 mph20.9 kmh 29.83 in1010.2 mb 0.00 in0.0 mm 0.00 in0.0 mm 0.00 in0.0 mm
05:40 AM 73.2°F22.9°C 72.3°F22.4°C 97% 2.2 mph SW3.5 kmh SW 13.0 mph20.9 kmh 29.84 in1010.5 mb 0.00 in0.0 mm 0.00 in0.0 mm 0.00 in0.0 mm
05:45 AM 73.3°F22.9°C 72.4°F22.4°C 97% 2.2 mph SW3.5 kmh SW 10.0 mph16.1 kmh 29.84 in1010.5 mb 0.00 in0.0 mm 0.00 in0.0 mm 0.00 in0.0 mm
05:50 AM 73.4°F23.0°C 72.2°F22.3°C 96% 3.2 mph SW5.1 kmh SW 10.0 mph16.1 kmh 29.84 in1010.5 mb 0.00 in0.0 mm 0.00 in0.0 mm 0.00 in0.0 mm
05:55 AM 73.5°F23.1°C 72.3°F22.4°C 96% 3.1 mph SW5.0 kmh SW 10.0 mph16.1 kmh 29.84 in1010.5 mb 0.00 in0.0 mm 0.00 in0.0 mm 0.00 in0.0 mm
06:00 AM 73.5°F23.1°C 72.3°F22.4°C 96% 1.5 mph WSW2.4 kmh WSW 10.0 mph16.1 kmh 29.84 in1010.5 mb 0.00 in0.0 mm 0.00 in0.0 mm 0.00 in0.0 mm
06:05 AM 73.6°F23.1°C 72.4°F22.4°C 96% 3.7 mph SW6.0 kmh SW 11.0 mph17.7 kmh 29.84 in1010.5 mb 0.00 in0.0 mm 0.00 in0.0 mm 0.00 in0.0 mm
06:10 AM 73.6°F23.1°C 72.4°F22.4°C 96% 2.8 mph WSW4.5 kmh WSW 11.0 mph17.7 kmh 29.85 in1010.8 mb 0.00 in0.0 mm 0.00 in0.0 mm 0.00 in0.0 mm
06:15 AM 73.6°F23.1°C 72.4°F22.4°C 96% 3.0 mph SW4.8 kmh SW 11.0 mph17.7 kmh 29.85 in1010.8 mb 0.00 in0.0 mm 0.00 in0.0 mm 0.00 in0.0 mm
06:20 AM 73.6°F23.1°C 72.4°F22.4°C 96% 2.4 mph SW3.9 kmh SW 11.0 mph17.7 kmh 29.85 in1010.8 mb 0.00 in0.0 mm 0.00 in0.0 mm 0.00 in0.0 mm
06:25 AM 73.6°F23.1°C 72.4°F22.4°C 96% 2.5 mph SW4.0 kmh SW 10.0 mph16.1 kmh 29.86 in1011.2 mb 0.00 in0.0 mm 0.00 in0.0 mm 0.00 in0.0 mm
06:30 AM 73.7°F23.2°C 72.5°F22.5°C 96% 3.7 mph SW6.0 kmh SW 10.0 mph16.1 kmh 29.86 in1011.2 mb 0.00 in0.0 mm 0.00 in0.0 mm 0.00 in0.0 mm
06:35 AM 73.7°F23.2°C 72.5°F22.5°C 96% 3.2 mph SW5.1 kmh SW 11.0 mph17.7 kmh 29.86 in1011.2 mb 0.00 in0.0 mm 0.00 in0.0 mm 0.00 in0.0 mm
06:39 AM 73.7°F23.2°C 72.5°F22.5°C 96% 3.7 mph SW6.0 kmh SW 11.0 mph17.7 kmh 29.86 in1011.2 mb 0.00 in0.0 mm 0.00 in0.0 mm 0.00 in0.0 mm
06:44 AM 73.7°F23.2°C 72.5°F22.5°C 96% 3.5 mph SW5.6 kmh SW 11.0 mph17.7 kmh 29.86 in1011.2 mb 0.00 in0.0 mm 0.00 in0.0 mm 0.00 in0.0 mm
06:49 AM 73.7°F23.2°C 72.5°F22.5°C 96% 3.3 mph SW5.3 kmh SW 11.0 mph17.7 kmh 29.86 in1011.2 mb 0.00 in0.0 mm 0.00 in0.0 mm 0.00 in0.0 mm
06:54 AM 73.8°F23.2°C 72.6°F22.6°C 96% 3.0 mph SW4.8 kmh SW 11.0 mph17.7 kmh 29.86 in1011.2 mb 0.00 in0.0 mm 0.00 in0.0 mm 0.00 in0.0 mm
06:59 AM 73.9°F23.3°C 72.7°F22.6°C 96% 2.6 mph WSW4.2 kmh WSW 11.0 mph17.7 kmh 29.86 in1011.2 mb 0.00 in0.0 mm 0.00 in0.0 mm 0.00 in0.0 mm
07:04 AM 74.0°F23.3°C 72.8°F22.7°C 96% 5.5 mph SW8.9 kmh SW 11.0 mph17.7 kmh 29.86 in1011.2 mb 0.00 in0.0 mm 0.00 in0.0 mm 0.00 in0.0 mm
07:09 AM 74.1°F23.4°C 72.9°F22.7°C 96% 2.7 mph SW4.3 kmh SW 11.0 mph17.7 kmh 29.86 in1011.2 mb 0.00 in0.0 mm 0.00 in0.0 mm 0.00 in0.0 mm
07:14 AM 74.2°F23.4°C 72.6°F22.6°C 95% 3.0 mph WSW4.8 kmh WSW 11.0 mph17.7 kmh 29.86 in1011.2 mb 0.00 in0.0 mm 0.00 in0.0 mm 0.00 in0.0 mm
07:19 AM 74.4°F23.6°C 72.8°F22.7°C 95% 2.5 mph SW4.0 kmh SW 11.0 mph17.7 kmh 29.86 in1011.2 mb 0.00 in0.0 mm 0.00 in0.0 mm 0.00 in0.0 mm
07:24 AM 74.5°F23.6°C 72.9°F22.7°C 95% 2.3 mph SW3.7 kmh SW 11.0 mph17.7 kmh 29.86 in1011.2 mb 0.00 in0.0 mm 0.00 in0.0 mm 0.00 in0.0 mm
07:29 AM 74.7°F23.7°C 73.2°F22.9°C 95% 3.5 mph SW5.6 kmh SW 9.0 mph14.5 kmh 29.86 in1011.2 mb 0.00 in0.0 mm 0.00 in0.0 mm 0.00 in0.0 mm
07:34 AM 75.0°F23.9°C 73.5°F23.1°C 95% 3.7 mph WSW6.0 kmh WSW 9.0 mph14.5 kmh 29.86 in1011.2 mb 0.00 in0.0 mm 0.00 in0.0 mm 0.00 in0.0 mm
07:39 AM 75.1°F23.9°C 73.3°F22.9°C 94% 2.1 mph WSW3.4 kmh WSW 9.0 mph14.5 kmh 29.87 in1011.5 mb 0.00 in0.0 mm 0.00 in0.0 mm 0.00 in0.0 mm
07:44 AM 75.0°F23.9°C 73.2°F22.9°C 94% 1.9 mph SW3.1 kmh SW 9.0 mph14.5 kmh 29.87 in1011.5 mb 0.00 in0.0 mm 0.00 in0.0 mm 0.00 in0.0 mm
07:49 AM 75.0°F23.9°C 73.2°F22.9°C 94% 2.7 mph WSW4.3 kmh WSW 8.0 mph12.9 kmh 29.86 in1011.2 mb 0.00 in0.0 mm 0.00 in0.0 mm 0.00 in0.0 mm
07:54 AM 75.1°F23.9°C 73.3°F22.9°C 94% 2.8 mph SW4.5 kmh SW 8.0 mph12.9 kmh 29.86 in1011.2 mb 0.00 in0.0 mm 0.00 in0.0 mm 0.00 in0.0 mm
07:59 AM 75.4°F24.1°C 73.5°F23.1°C 94% 1.7 mph SW2.7 kmh SW 7.0 mph11.3 kmh 29.86 in1011.2 mb 0.00 in0.0 mm 0.00 in0.0 mm 0.00 in0.0 mm
08:04 AM 75.8°F24.3°C 73.9°F23.3°C 94% 2.8 mph SW4.5 kmh SW 7.0 mph11.3 kmh 29.86 in1011.2 mb 0.00 in0.0 mm 0.00 in0.0 mm 0.00 in0.0 mm
08:09 AM 76.3°F24.6°C 74.1°F23.4°C 93% 2.9 mph SSW4.7 kmh SSW 9.0 mph14.5 kmh 29.86 in1011.2 mb 0.00 in0.0 mm 0.00 in0.0 mm 0.00 in0.0 mm
08:14 AM 76.6°F24.8°C 74.1°F23.4°C 92% 3.0 mph SSW4.8 kmh SSW 10.0 mph16.1 kmh 29.86 in1011.2 mb 0.00 in0.0 mm 0.00 in0.0 mm 0.00 in0.0 mm
08:19 AM 76.6°F24.8°C 74.1°F23.4°C 92% 2.5 mph SW4.0 kmh SW 10.0 mph16.1 kmh 29.85 in1010.8 mb 0.00 in0.0 mm 0.00 in0.0 mm 0.00 in0.0 mm
08:24 AM 76.6°F24.8°C 74.1°F23.4°C 92% 3.9 mph SW6.3 kmh SW 11.0 mph17.7 kmh 29.85 in1010.8 mb 0.00 in0.0 mm 0.00 in0.0 mm 0.00 in0.0 mm
08:29 AM 76.4°F24.7°C 73.9°F23.3°C 92% 3.2 mph SW5.1 kmh SW 11.0 mph17.7 kmh 29.85 in1010.8 mb 0.00 in0.0 mm 0.00 in0.0 mm 0.00 in0.0 mm
08:34 AM 76.2°F24.6°C 73.7°F23.2°C 92% 2.2 mph SW3.5 kmh SW 11.0 mph17.7 kmh 29.85 in1010.8 mb 0.00 in0.0 mm 0.00 in0.0 mm 0.00 in0.0 mm
08:39 AM 76.2°F24.6°C 74.0°F23.3°C 93% 2.1 mph SW3.4 kmh SW 11.0 mph17.7 kmh 29.85 in1010.8 mb 0.00 in0.0 mm 0.00 in0.0 mm 0.00 in0.0 mm
08:44 AM 76.1°F24.5°C 73.9°F23.3°C 93% 3.0 mph SW4.8 kmh SW 8.0 mph12.9 kmh 29.85 in1010.8 mb 0.00 in0.0 mm 0.00 in0.0 mm 0.00 in0.0 mm
08:49 AM 76.2°F24.6°C 74.0°F23.3°C 93% 2.4 mph SSW3.9 kmh SSW 8.0 mph12.9 kmh 29.85 in1010.8 mb 0.00 in0.0 mm 0.00 in0.0 mm 0.00 in0.0 mm
08:54 AM 76.3°F24.6°C 74.1°F23.4°C 93% 2.2 mph SW3.5 kmh SW 8.0 mph12.9 kmh 29.85 in1010.8 mb 0.00 in0.0 mm 0.00 in0.0 mm 0.00 in0.0 mm
08:59 AM 76.4°F24.7°C 73.9°F23.3°C 92% 3.0 mph SW4.8 kmh SW 8.0 mph12.9 kmh 29.86 in1011.2 mb 0.00 in0.0 mm 0.00 in0.0 mm 0.00 in0.0 mm
09:04 AM 76.8°F24.9°C 74.3°F23.5°C 92% 2.9 mph SW4.7 kmh SW 10.0 mph16.1 kmh 29.86 in1011.2 mb 0.00 in0.0 mm 0.00 in0.0 mm 0.00 in0.0 mm
09:09 AM 77.0°F25.0°C 74.2°F23.4°C 91% 3.9 mph SW6.3 kmh SW 12.0 mph19.3 kmh 29.86 in1011.2 mb 0.00 in0.0 mm 0.00 in0.0 mm 0.00 in0.0 mm
09:14 AM 77.3°F25.2°C 74.5°F23.6°C 91% 3.0 mph SW4.8 kmh SW 12.0 mph19.3 kmh 29.86 in1011.2 mb 0.00 in0.0 mm 0.00 in0.0 mm 0.00 in0.0 mm
09:19 AM 77.6°F25.3°C 74.4°F23.6°C 90% 5.5 mph SW8.9 kmh SW 12.0 mph19.3 kmh 29.85 in1010.8 mb 0.00 in0.0 mm 0.00 in0.0 mm 0.00 in0.0 mm
09:24 AM 77.9°F25.5°C 74.4°F23.6°C 89% 3.6 mph SW5.8 kmh SW 12.0 mph19.3 kmh 29.85 in1010.8 mb 0.00 in0.0 mm 0.00 in0.0 mm 0.00 in0.0 mm
09:29 AM 78.3°F25.7°C 74.8°F23.8°C 89% 3.4 mph SW5.5 kmh SW 12.0 mph19.3 kmh 29.86 in1011.2 mb 0.00 in0.0 mm 0.00 in0.0 mm 0.00 in0.0 mm
09:34 AM 78.4°F25.8°C 74.6°F23.7°C 88% 5.5 mph SW8.9 kmh SW 12.0 mph19.3 kmh 29.86 in1011.2 mb 0.00 in0.0 mm 0.00 in0.0 mm 0.00 in0.0 mm
09:39 AM 78.8°F26.0°C 75.0°F23.9°C 88% 1.7 mph SW2.7 kmh SW 14.0 mph22.5 kmh 29.86 in1011.2 mb 0.00 in0.0 mm 0.00 in0.0 mm 0.00 in0.0 mm
09:44 AM 78.9°F26.1°C 74.7°F23.7°C 87% 3.5 mph SW5.6 kmh SW 14.0 mph22.5 kmh 29.86 in1011.2 mb 0.00 in0.0 mm 0.00 in0.0 mm 0.00 in0.0 mm
09:49 AM 79.0°F26.1°C 74.8°F23.8°C 87% 3.2 mph SW5.1 kmh SW 14.0 mph22.5 kmh 29.86 in1011.2 mb 0.00 in0.0 mm 0.00 in0.0 mm 0.00 in0.0 mm
09:54 AM 79.5°F26.4°C 75.0°F23.9°C 86% 2.6 mph SW4.2 kmh SW 13.0 mph20.9 kmh 29.86 in1011.2 mb 0.00 in0.0 mm 0.00 in0.0 mm 0.00 in0.0 mm
09:59 AM 79.8°F26.6°C 74.6°F23.7°C 84% 5.2 mph WSW8.4 kmh WSW 13.0 mph20.9 kmh 29.86 in1011.2 mb 0.00 in0.0 mm 0.00 in0.0 mm 0.00 in0.0 mm
10:04 AM 79.9°F26.6°C 74.7°F23.7°C 84% 4.5 mph WSW7.2 kmh WSW 12.0 mph19.3 kmh 29.86 in1011.2 mb 0.00 in0.0 mm 0.00 in0.0 mm 0.00 in0.0 mm
10:09 AM 80.3°F26.8°C 74.7°F23.7°C 83% 2.6 mph SW4.2 kmh SW 12.0 mph19.3 kmh 29.86 in1011.2 mb 0.00 in0.0 mm 0.00 in0.0 mm 0.00 in0.0 mm
10:14 AM 80.3°F26.8°C 74.7°F23.7°C 83% 3.2 mph WSW5.1 kmh WSW 15.0 mph24.1 kmh 29.86 in1011.2 mb 0.00 in0.0 mm 0.00 in0.0 mm 0.00 in0.0 mm
10:19 AM 80.7°F27.1°C 75.1°F23.9°C 83% 3.1 mph WSW5.0 kmh WSW 15.0 mph24.1 kmh 29.86 in1011.2 mb 0.00 in0.0 mm 0.00 in0.0 mm 0.00 in0.0 mm
10:24 AM 80.9°F27.2°C 74.5°F23.6°C 81% 6.4 mph WSW10.3 kmh WSW 15.0 mph24.1 kmh 29.86 in1011.2 mb 0.00 in0.0 mm 0.00 in0.0 mm 0.00 in0.0 mm
10:30 AM 81.5°F27.5°C 75.5°F24.2°C 82% 1.9 mph SW3.1 kmh SW 15.0 mph24.1 kmh 29.87 in1011.5 mb 0.00 in0.0 mm 0.00 in0.0 mm 0.00 in0.0 mm
10:35 AM 81.9°F27.7°C 74.9°F23.8°C 79% 4.6 mph SW7.4 kmh SW 15.0 mph24.1 kmh 29.87 in1011.5 mb 0.00 in0.0 mm 0.00 in0.0 mm 0.00 in0.0 mm
10:40 AM 81.7°F27.6°C 74.3°F23.5°C 78% 5.6 mph WSW9.0 kmh WSW 15.0 mph24.1 kmh 29.87 in1011.5 mb 0.00 in0.0 mm 0.00 in0.0 mm 0.00 in0.0 mm
10:45 AM 81.9°F27.7°C 74.9°F23.8°C 79% 2.9 mph WSW4.7 kmh WSW 14.0 mph22.5 kmh 29.87 in1011.5 mb 0.00 in0.0 mm 0.00 in0.0 mm 0.00 in0.0 mm
10:50 AM 82.4°F28.0°C 75.4°F24.1°C 79% 3.9 mph SW6.3 kmh SW 14.0 mph22.5 kmh 29.87 in1011.5 mb 0.00 in0.0 mm 0.00 in0.0 mm 0.00 in0.0 mm
10:55 AM 82.4°F28.0°C 74.5°F23.6°C 77% 3.6 mph SW5.8 kmh SW 14.0 mph22.5 kmh 29.87 in1011.5 mb 0.00 in0.0 mm 0.00 in0.0 mm 0.00 in0.0 mm
11:00 AM 82.5°F28.1°C 74.6°F23.7°C 77% 3.1 mph W5.0 kmh W 10.0 mph16.1 kmh 29.87 in1011.5 mb 0.00 in0.0 mm 0.00 in0.0 mm 0.00 in0.0 mm
11:05 AM 82.8°F28.2°C 75.0°F23.9°C 77% 4.1 mph SW6.6 kmh SW 10.0 mph16.1 kmh 29.87 in1011.5 mb 0.00 in0.0 mm 0.00 in0.0 mm 0.00 in0.0 mm
11:10 AM 83.0°F28.3°C 75.2°F24.0°C 77% 1.8 mph SW2.9 kmh SW 10.0 mph16.1 kmh 29.87 in1011.5 mb 0.00 in0.0 mm 0.00 in0.0 mm 0.00 in0.0 mm
11:15 AM 83.4°F28.6°C 74.4°F23.6°C 74% 4.1 mph WSW6.6 kmh WSW 10.0 mph16.1 kmh 29.87 in1011.5 mb 0.00 in0.0 mm 0.00 in0.0 mm 0.00 in0.0 mm
11:20 AM 83.3°F28.5°C 74.7°F23.7°C 75% 5.1 mph WSW8.2 kmh WSW 11.0 mph17.7 kmh 29.86 in1011.2 mb 0.00 in0.0 mm 0.00 in0.0 mm 0.00 in0.0 mm
11:25 AM 83.5°F28.6°C 74.9°F23.8°C 75% 2.7 mph WSW4.3 kmh WSW 11.0 mph17.7 kmh 29.86 in1011.2 mb 0.00 in0.0 mm 0.00 in0.0 mm 0.00 in0.0 mm
11:30 AM 84.0°F28.9°C 74.0°F23.3°C 72% 5.2 mph WSW8.4 kmh WSW 11.0 mph17.7 kmh 29.86 in1011.2 mb 0.00 in0.0 mm 0.00 in0.0 mm 0.00 in0.0 mm
11:35 AM 83.7°F28.7°C 74.3°F23.5°C 73% 4.4 mph W7.1 kmh W 11.0 mph17.7 kmh 29.86 in1011.2 mb 0.00 in0.0 mm 0.00 in0.0 mm 0.00 in0.0 mm
11:40 AM 83.4°F28.6°C 74.4°F23.6°C 74% 6.0 mph WSW9.7 kmh WSW 15.0 mph24.1 kmh 29.86 in1011.2 mb 0.00 in0.0 mm 0.00 in0.0 mm 0.00 in0.0 mm
11:45 AM 83.5°F28.6°C 74.1°F23.4°C 73% 7.0 mph SW11.3 kmh SW 15.0 mph24.1 kmh 29.86 in1011.2 mb 0.00 in0.0 mm 0.00 in0.0 mm 0.00 in0.0 mm
11:50 AM 83.3°F28.5°C 74.1°F23.4°C 74% 3.4 mph WSW5.5 kmh WSW 16.0 mph25.7 kmh 29.86 in1011.2 mb 0.00 in0.0 mm 0.00 in0.0 mm 0.00 in0.0 mm
11:55 AM 83.4°F28.6°C 74.4°F23.6°C 74% 3.5 mph SW5.6 kmh SW 16.0 mph25.7 kmh 29.85 in1010.8 mb 0.00 in0.0 mm 0.00 in0.0 mm 0.00 in0.0 mm
12:00 PM 83.6°F28.7°C 74.2°F23.4°C 73% 3.1 mph SW5.0 kmh SW 16.0 mph25.7 kmh 29.85 in1010.8 mb 0.00 in0.0 mm 0.00 in0.0 mm 0.00 in0.0 mm
12:05 PM 83.6°F28.7°C 74.2°F23.4°C 73% 3.9 mph SW6.3 kmh SW 13.0 mph20.9 kmh 29.84 in1010.5 mb 0.00 in0.0 mm 0.00 in0.0 mm 0.00 in0.0 mm
12:10 PM 83.6°F28.7°C 74.2°F23.4°C 73% 5.1 mph S8.2 kmh S 15.0 mph24.1 kmh 29.84 in1010.5 mb 0.00 in0.0 mm 0.00 in0.0 mm 0.00 in0.0 mm
12:15 PM 83.8°F28.8°C 74.6°F23.7°C 74% 2.8 mph SW4.5 kmh SW 15.0 mph24.1 kmh 29.85 in1010.8 mb 0.00 in0.0 mm 0.00 in0.0 mm 0.00 in0.0 mm
12:20 PM 84.1°F28.9°C 74.7°F23.7°C 73% 5.5 mph SW8.9 kmh SW 15.0 mph24.1 kmh 29.85 in1010.8 mb 0.00 in0.0 mm 0.00 in0.0 mm 0.00 in0.0 mm
12:25 PM 84.4°F29.1°C 75.0°F23.9°C 73% 4.5 mph SW7.2 kmh SW 15.0 mph24.1 kmh 29.86 in1011.2 mb 0.00 in0.0 mm 0.00 in0.0 mm 0.00 in0.0 mm
12:30 PM 84.2°F29.0°C 74.8°F23.8°C 73% 1.5 mph SW2.4 kmh SW 12.0 mph19.3 kmh 29.85 in1010.8 mb 0.00 in0.0 mm 0.00 in0.0 mm 0.00 in0.0 mm
12:35 PM 84.7°F29.3°C 75.3°F24.1°C 73% 4.2 mph SW6.8 kmh SW 12.0 mph19.3 kmh 29.85 in1010.8 mb 0.00 in0.0 mm 0.00 in0.0 mm 0.00 in0.0 mm
12:38 PM 85.4°F29.7°C 76.0°F24.4°C 73% 2.6 mph SW4.2 kmh SW 10.0 mph16.1 kmh 29.85 in1010.8 mb 0.00 in0.0 mm 0.00 in0.0 mm 0.00 in0.0 mm
12:43 PM 85.3°F29.6°C 75.1°F23.9°C 71% 4.9 mph SW7.9 kmh SW 12.0 mph19.3 kmh 29.85 in1010.8 mb 0.00 in0.0 mm 0.00 in0.0 mm 0.00 in0.0 mm
12:49 PM 85.1°F29.5°C 75.5°F24.2°C 73% 2.7 mph SW4.3 kmh SW 13.0 mph20.9 kmh 29.85 in1010.8 mb 0.00 in0.0 mm 0.00 in0.0 mm 0.00 in0.0 mm
12:54 PM 85.2°F29.6°C 75.0°F23.9°C 71% 5.9 mph SW9.5 kmh SW 13.0 mph20.9 kmh 29.85 in1010.8 mb 0.00 in0.0 mm 0.00 in0.0 mm 0.00 in0.0 mm
12:59 PM 85.0°F29.4°C 75.2°F24.0°C 72% 2.5 mph SW4.0 kmh SW 13.0 mph20.9 kmh 29.84 in1010.5 mb 0.00 in0.0 mm 0.00 in0.0 mm 0.00 in0.0 mm
01:04 PM 85.0°F29.4°C 74.8°F23.8°C 71% 3.7 mph SW6.0 kmh SW 12.0 mph19.3 kmh 29.85 in1010.8 mb 0.00 in0.0 mm 0.00 in0.0 mm 0.00 in0.0 mm
01:09 PM 85.0°F29.4°C 73.3°F22.9°C 68% 6.5 mph SW10.5 kmh SW 14.0 mph22.5 kmh 29.85 in1010.8 mb 0.00 in0.0 mm 0.00 in0.0 mm 0.00 in0.0 mm
01:14 PM 85.4°F29.7°C 74.3°F23.5°C 69% 3.8 mph WSW6.1 kmh WSW 14.0 mph22.5 kmh 29.85 in1010.8 mb 0.00 in0.0 mm 0.00 in0.0 mm 0.00 in0.0 mm
01:19 PM 85.5°F29.7°C 74.0°F23.3°C 68% 6.1 mph SW9.8 kmh SW 14.0 mph22.5 kmh 29.85 in1010.8 mb 0.00 in0.0 mm 0.00 in0.0 mm 0.00 in0.0 mm
01:24 PM 85.8°F29.9°C 74.3°F23.5°C 68% 3.4 mph W5.5 kmh W 14.0 mph22.5 kmh 29.85 in1010.8 mb 0.00 in0.0 mm 0.00 in0.0 mm 0.00 in0.0 mm
01:29 PM 85.9°F29.9°C 74.1°F23.4°C 68% 2.8 mph SW4.5 kmh SW 14.0 mph22.5 kmh 29.85 in1010.8 mb 0.00 in0.0 mm 0.00 in0.0 mm 0.00 in0.0 mm
01:34 PM 86.5°F30.3°C 74.5°F23.6°C 67% 4.4 mph WSW7.1 kmh WSW 16.0 mph25.7 kmh 29.85 in1010.8 mb 0.00 in0.0 mm 0.00 in0.0 mm 0.00 in0.0 mm
01:39 PM 86.4°F30.2°C 73.5°F23.1°C 65% 5.2 mph WSW8.4 kmh WSW 18.0 mph29.0 kmh 29.85 in1010.8 mb 0.00 in0.0 mm 0.00 in0.0 mm 0.00 in0.0 mm
01:44 PM 86.3°F30.2°C 74.3°F23.5°C 67% 5.7 mph SW9.2 kmh SW 18.0 mph29.0 kmh 29.85 in1010.8 mb 0.00 in0.0 mm 0.00 in0.0 mm 0.00 in0.0 mm
01:49 PM 86.4°F30.2°C 74.9°F23.8°C 68% 3.9 mph WSW6.3 kmh WSW 18.0 mph29.0 kmh 29.85 in1010.8 mb 0.00 in0.0 mm 0.00 in0.0 mm 0.00 in0.0 mm
01:54 PM 86.3°F30.2°C 74.3°F23.5°C 67% 4.7 mph SW7.6 kmh SW 18.0 mph29.0 kmh 29.85 in1010.8 mb 0.00 in0.0 mm 0.00 in0.0 mm 0.00 in0.0 mm
01:59 PM 86.2°F30.1°C 74.4°F23.6°C 68% 4.4 mph SW7.1 kmh SW 15.0 mph24.1 kmh 29.85 in1010.8 mb 0.00 in0.0 mm 0.00 in0.0 mm 0.00 in0.0 mm
02:04 PM 86.6°F30.3°C 73.7°F23.2°C 65% 4.5 mph SW7.2 kmh SW 12.0 mph19.3 kmh 29.84 in1010.5 mb 0.00 in0.0 mm 0.00 in0.0 mm 0.00 in0.0 mm
02:09 PM 86.7°F30.4°C 74.7°F23.7°C 67% 2.9 mph WSW4.7 kmh WSW 12.0 mph19.3 kmh 29.84 in1010.5 mb 0.00 in0.0 mm 0.00 in0.0 mm 0.00 in0.0 mm
02:14 PM 86.6°F30.3°C 73.0°F22.8°C 64% 5.4 mph SW8.7 kmh SW 16.0 mph25.7 kmh 29.84 in1010.5 mb 0.00 in0.0 mm 0.00 in0.0 mm 0.00 in0.0 mm
02:19 PM 87.2°F30.7°C 75.2°F24.0°C 67% 1.8 mph SW2.9 kmh SW 16.0 mph25.7 kmh 29.84 in1010.5 mb 0.00 in0.0 mm 0.00 in0.0 mm 0.00 in0.0 mm
02:24 PM 87.5°F30.8°C 74.6°F23.7°C 65% 2.0 mph WSW3.2 kmh WSW 16.0 mph25.7 kmh 29.85 in1010.8 mb 0.00 in0.0 mm 0.00 in0.0 mm 0.00 in0.0 mm
02:29 PM 87.7°F30.9°C 73.4°F23.0°C 62% 7.0 mph WSW11.3 kmh WSW 16.0 mph25.7 kmh 29.84 in1010.5 mb 0.00 in0.0 mm 0.00 in0.0 mm 0.00 in0.0 mm
02:34 PM 87.3°F30.7°C 74.1°F23.4°C 65% 6.7 mph SW10.8 kmh SW 16.0 mph25.7 kmh 29.84 in1010.5 mb 0.00 in0.0 mm 0.00 in0.0 mm 0.00 in0.0 mm
02:39 PM 87.2°F30.7°C 74.5°F23.6°C 66% 2.5 mph SSW4.0 kmh SSW 16.0 mph25.7 kmh 29.84 in1010.5 mb 0.00 in0.0 mm 0.00 in0.0 mm 0.00 in0.0 mm
02:44 PM 87.5°F30.8°C 74.6°F23.7°C 65% 3.0 mph SW4.8 kmh SW 16.0 mph25.7 kmh 29.84 in1010.5 mb 0.00 in0.0 mm 0.00 in0.0 mm 0.00 in0.0 mm
02:49 PM 87.6°F30.9°C 73.9°F23.3°C 64% 5.0 mph SW8.0 kmh SW 13.0 mph20.9 kmh 29.84 in1010.5 mb 0.00 in0.0 mm 0.00 in0.0 mm 0.00 in0.0 mm
02:54 PM 87.0°F30.6°C 74.5°F23.6°C 66% 4.1 mph SW6.6 kmh SW 12.0 mph19.3 kmh 29.83 in1010.2 mb 0.00 in0.0 mm 0.00 in0.0 mm 0.00 in0.0 mm
02:59 PM 86.3°F30.2°C 73.9°F23.3°C 66% 3.3 mph SSW5.3 kmh SSW 12.0 mph19.3 kmh 29.83 in1010.2 mb 0.00 in0.0 mm 0.00 in0.0 mm 0.00 in0.0 mm
03:04 PM 85.8°F29.9°C 73.8°F23.2°C 67% 3.3 mph SW5.3 kmh SW 12.0 mph19.3 kmh 29.83 in1010.2 mb 0.00 in0.0 mm 0.00 in0.0 mm 0.00 in0.0 mm
03:09 PM 85.4°F29.7°C 73.9°F23.3°C 68% 4.3 mph SW6.9 kmh SW 12.0 mph19.3 kmh 29.83 in1010.2 mb 0.00 in0.0 mm 0.00 in0.0 mm 0.00 in0.0 mm
03:14 PM 85.6°F29.8°C 74.5°F23.6°C 69% 5.1 mph WSW8.2 kmh WSW 12.0 mph19.3 kmh 29.83 in1010.2 mb 0.00 in0.0 mm 0.00 in0.0 mm 0.00 in0.0 mm
03:19 PM 86.2°F30.1°C 74.0°F23.3°C 67% 4.4 mph WSW7.1 kmh WSW 16.0 mph25.7 kmh 29.82 in1009.8 mb 0.00 in0.0 mm 0.00 in0.0 mm 0.00 in0.0 mm
03:24 PM 86.8°F30.4°C 73.9°F23.3°C 65% 4.4 mph SW7.1 kmh SW 16.0 mph25.7 kmh 29.82 in1009.8 mb 0.00 in0.0 mm 0.00 in0.0 mm 0.00 in0.0 mm
03:29 PM 87.2°F30.7°C 75.2°F24.0°C 67% 3.7 mph WSW6.0 kmh WSW 16.0 mph25.7 kmh 29.82 in1009.8 mb 0.00 in0.0 mm 0.00 in0.0 mm 0.00 in0.0 mm
03:34 PM 87.2°F30.7°C 72.9°F22.7°C 62% 6.8 mph WSW10.9 kmh WSW 19.0 mph30.6 kmh 29.82 in1009.8 mb 0.00 in0.0 mm 0.00 in0.0 mm 0.00 in0.0 mm
03:39 PM 86.9°F30.5°C 73.5°F23.1°C 64% 5.3 mph SW8.5 kmh SW 19.0 mph30.6 kmh 29.82 in1009.8 mb 0.00 in0.0 mm 0.00 in0.0 mm 0.00 in0.0 mm
03:44 PM 86.3°F30.2°C 73.0°F22.8°C 64% 3.9 mph SW6.3 kmh SW 19.0 mph30.6 kmh 29.82 in1009.8 mb 0.00 in0.0 mm 0.00 in0.0 mm 0.00 in0.0 mm
03:49 PM 85.8°F29.9°C 72.7°F22.6°C 65% 3.6 mph WSW5.8 kmh WSW 19.0 mph30.6 kmh 29.82 in1009.8 mb 0.00 in0.0 mm 0.00 in0.0 mm 0.00 in0.0 mm
03:54 PM 85.4°F29.7°C 72.6°F22.6°C 65% 4.0 mph WSW6.4 kmh WSW 20.0 mph32.2 kmh 29.83 in1010.2 mb 0.00 in0.0 mm 0.00 in0.0 mm 0.00 in0.0 mm
03:59 PM 85.1°F29.5°C 72.7°F22.6°C 66% 3.9 mph W6.3 kmh W 20.0 mph32.2 kmh 29.85 in1010.8 mb 0.00 in0.0 mm 0.00 in0.0 mm 0.00 in0.0 mm
04:37 PM 72.4°F22.4°C 69.9°F21.1°C 92% 2.0 mph WNW3.2 kmh WNW 5.0 mph8.0 kmh 29.84 in1010.5 mb 0.00 in0.0 mm 0.00 in0.0 mm 0.17 in4.3 mm
04:42 PM 72.8°F22.7°C 70.0°F21.1°C 91% 2.8 mph W4.5 kmh W 5.0 mph8.0 kmh 29.84 in1010.5 mb 0.17 in4.3 mm 2.04 in51.8 mm 0.17 in4.3 mm
04:46 PM 73.3°F22.9°C 70.2°F21.2°C 90% 2.8 mph WSW4.5 kmh WSW 6.0 mph9.7 kmh 29.84 in1010.5 mb 0.17 in4.3 mm 0.00 in0.0 mm 0.17 in4.3 mm
04:52 PM 74.0°F23.3°C 71.2°F21.8°C 91% 2.0 mph WSW3.2 kmh WSW 6.0 mph9.7 kmh 29.84 in1010.5 mb 0.17 in4.3 mm 0.00 in0.0 mm 0.17 in4.3 mm
04:57 PM 75.0°F23.9°C 72.2°F22.3°C 91% 1.6 mph WSW2.6 kmh WSW 6.0 mph9.7 kmh 29.84 in1010.5 mb 0.17 in4.3 mm 0.00 in0.0 mm 0.17 in4.3 mm
05:02 PM 75.8°F24.3°C 71.7°F22.1°C 87% 3.1 mph WSW5.0 kmh WSW 6.0 mph9.7 kmh 29.84 in1010.5 mb 0.00 in0.0 mm 0.00 in0.0 mm 0.17 in4.3 mm
05:07 PM 76.7°F24.8°C 72.5°F22.5°C 87% 2.1 mph SW3.4 kmh SW 7.0 mph11.3 kmh 29.84 in1010.5 mb 0.00 in0.0 mm 0.00 in0.0 mm 0.17 in4.3 mm
05:12 PM 77.7°F25.4°C 72.9°F22.7°C 85% 2.7 mph WSW4.3 kmh WSW 7.0 mph11.3 kmh 29.84 in1010.5 mb 0.00 in0.0 mm 0.00 in0.0 mm 0.17 in4.3 mm
05:17 PM 78.3°F25.7°C 73.5°F23.1°C 85% 2.9 mph W4.7 kmh W 8.0 mph12.9 kmh 29.84 in1010.5 mb 0.00 in0.0 mm 0.00 in0.0 mm 0.17 in4.3 mm
05:22 PM 79.1°F26.2°C 73.6°F23.1°C 83% 1.7 mph WSW2.7 kmh WSW 8.0 mph12.9 kmh 29.84 in1010.5 mb 0.00 in0.0 mm 0.00 in0.0 mm 0.17 in4.3 mm
05:27 PM 79.8°F26.6°C 73.8°F23.2°C 82% 2.5 mph W4.0 kmh W 8.0 mph12.9 kmh 29.84 in1010.5 mb 0.00 in0.0 mm 0.00 in0.0 mm 0.17 in4.3 mm
05:32 PM 80.1°F26.7°C 74.2°F23.4°C 82% 2.2 mph WSW3.5 kmh WSW 9.0 mph14.5 kmh 29.84 in1010.5 mb 0.00 in0.0 mm 0.00 in0.0 mm 0.17 in4.3 mm
05:37 PM 80.7°F27.1°C 74.8°F23.8°C 82% 1.4 mph SW2.3 kmh SW 9.0 mph14.5 kmh 29.83 in1010.2 mb 0.00 in0.0 mm 0.00 in0.0 mm 0.17 in4.3 mm
05:42 PM 81.1°F27.3°C 74.5°F23.6°C 80% 3.9 mph WSW6.3 kmh WSW 9.0 mph14.5 kmh 29.83 in1010.2 mb 0.00 in0.0 mm 0.00 in0.0 mm 0.17 in4.3 mm
05:47 PM 81.3°F27.4°C 74.5°F23.6°C 80% 2.0 mph WSW3.2 kmh WSW 8.0 mph12.9 kmh 29.83 in1010.2 mb 0.00 in0.0 mm 0.00 in0.0 mm 0.17 in4.3 mm
05:52 PM 81.8°F27.7°C 75.1°F23.9°C 80% 2.7 mph WSW4.3 kmh WSW 8.0 mph12.9 kmh 29.83 in1010.2 mb 0.00 in0.0 mm 0.00 in0.0 mm 0.17 in4.3 mm
05:57 PM 82.2°F27.9°C 75.5°F24.2°C 80% 3.2 mph SW5.1 kmh SW 8.0 mph12.9 kmh 29.82 in1009.8 mb 0.00 in0.0 mm 0.00 in0.0 mm 0.17 in4.3 mm
06:02 PM 82.7°F28.2°C 75.3°F24.1°C 78% 3.4 mph W5.5 kmh W 8.0 mph12.9 kmh 29.82 in1009.8 mb 0.00 in0.0 mm 0.00 in0.0 mm 0.17 in4.3 mm
06:07 PM 82.8°F28.2°C 75.8°F24.3°C 79% 3.2 mph SW5.1 kmh SW 8.0 mph12.9 kmh 29.82 in1009.8 mb 0.00 in0.0 mm 0.00 in0.0 mm 0.17 in4.3 mm
06:12 PM 82.8°F28.2°C 75.8°F24.3°C 79% 4.1 mph WSW6.6 kmh WSW 8.0 mph12.9 kmh 29.82 in1009.8 mb 0.00 in0.0 mm 0.00 in0.0 mm 0.17 in4.3 mm
06:17 PM 82.7°F28.2°C 75.5°F24.2°C 79% 2.0 mph W3.2 kmh W 8.0 mph12.9 kmh 29.82 in1009.8 mb 0.00 in0.0 mm 0.00 in0.0 mm 0.17 in4.3 mm
06:22 PM 82.8°F28.2°C 76.0°F24.4°C 80% 3.3 mph WSW5.3 kmh WSW 8.0 mph12.9 kmh 29.82 in1009.8 mb 0.00 in0.0 mm 0.00 in0.0 mm 0.17 in4.3 mm
06:27 PM 83.1°F28.4°C 76.0°F24.4°C 79% 2.2 mph WSW3.5 kmh WSW 8.0 mph12.9 kmh 29.82 in1009.8 mb 0.00 in0.0 mm 0.00 in0.0 mm 0.17 in4.3 mm
06:32 PM 83.7°F28.7°C 75.9°F24.4°C 77% 4.2 mph W6.8 kmh W 9.0 mph14.5 kmh 29.81 in1009.5 mb 0.00 in0.0 mm 0.00 in0.0 mm 0.17 in4.3 mm
06:37 PM 83.9°F28.8°C 76.1°F24.5°C 77% 3.4 mph W5.5 kmh W 9.0 mph14.5 kmh 29.81 in1009.5 mb 0.00 in0.0 mm 0.00 in0.0 mm 0.17 in4.3 mm
06:42 PM 84.1°F28.9°C 75.9°F24.4°C 76% 4.2 mph WSW6.8 kmh WSW 12.0 mph19.3 kmh 29.81 in1009.5 mb 0.00 in0.0 mm 0.00 in0.0 mm 0.17 in4.3 mm
06:47 PM 84.3°F29.1°C 76.1°F24.5°C 76% 3.8 mph W6.1 kmh W 12.0 mph19.3 kmh 29.80 in1009.1 mb 0.00 in0.0 mm 0.00 in0.0 mm 0.17 in4.3 mm
06:52 PM 84.5°F29.2°C 76.3°F24.6°C 76% 3.3 mph WSW5.3 kmh WSW 12.0 mph19.3 kmh 29.80 in1009.1 mb 0.00 in0.0 mm 0.00 in0.0 mm 0.17 in4.3 mm
06:57 PM 84.6°F29.2°C 76.2°F24.6°C 76% 2.6 mph W4.2 kmh W 12.0 mph19.3 kmh 29.80 in1009.1 mb 0.00 in0.0 mm 0.00 in0.0 mm 0.17 in4.3 mm
07:02 PM 85.0°F29.4°C 76.8°F24.9°C 76% 2.3 mph W3.7 kmh W 8.0 mph12.9 kmh 29.80 in1009.1 mb 0.00 in0.0 mm 0.00 in0.0 mm 0.17 in4.3 mm
07:07 PM 84.8°F29.3°C 76.2°F24.6°C 75% 2.7 mph WSW4.3 kmh WSW 10.0 mph16.1 kmh 29.80 in1009.1 mb 0.00 in0.0 mm 0.00 in0.0 mm 0.17 in4.3 mm
07:12 PM 84.8°F29.3°C 76.0°F24.4°C 75% 3.2 mph WSW5.1 kmh WSW 10.0 mph16.1 kmh 29.80 in1009.1 mb 0.00 in0.0 mm 0.00 in0.0 mm 0.17 in4.3 mm
07:17 PM 84.8°F29.3°C 75.8°F24.3°C 74% 3.0 mph WSW4.8 kmh WSW 12.0 mph19.3 kmh 29.80 in1009.1 mb 0.00 in0.0 mm 0.00 in0.0 mm 0.17 in4.3 mm
07:22 PM 84.8°F29.3°C 75.8°F24.3°C 74% 3.2 mph WSW5.1 kmh WSW 12.0 mph19.3 kmh 29.80 in1009.1 mb 0.00 in0.0 mm 0.00 in0.0 mm 0.17 in4.3 mm
07:27 PM 85.0°F29.4°C 76.0°F24.4°C 74% 2.4 mph WSW3.9 kmh WSW 12.0 mph19.3 kmh 29.80 in1009.1 mb 0.00 in0.0 mm 0.00 in0.0 mm 0.17 in4.3 mm
07:32 PM 84.9°F29.4°C 75.5°F24.2°C 73% 3.2 mph WSW5.1 kmh WSW 12.0 mph19.3 kmh 29.80 in1009.1 mb 0.00 in0.0 mm 0.00 in0.0 mm 0.17 in4.3 mm
07:37 PM 85.0°F29.4°C 75.4°F24.1°C 73% 3.9 mph WSW6.3 kmh WSW 9.0 mph14.5 kmh 29.80 in1009.1 mb 0.00 in0.0 mm 0.00 in0.0 mm 0.17 in4.3 mm
07:42 PM 85.0°F29.4°C 75.2°F24.0°C 72% 2.3 mph W3.7 kmh W 9.0 mph14.5 kmh 29.80 in1009.1 mb 0.00 in0.0 mm 0.00 in0.0 mm 0.17 in4.3 mm
07:47 PM 84.9°F29.4°C 75.5°F24.2°C 73% 2.5 mph WSW4.0 kmh WSW 8.0 mph12.9 kmh 29.80 in1009.1 mb 0.00 in0.0 mm 0.00 in0.0 mm 0.17 in4.3 mm
07:52 PM 84.9°F29.4°C 75.5°F24.2°C 73% 1.6 mph SW2.6 kmh SW 8.0 mph12.9 kmh 29.81 in1009.5 mb 0.00 in0.0 mm 0.00 in0.0 mm 0.17 in4.3 mm
07:57 PM 84.9°F29.4°C 75.5°F24.2°C 73% 1.1 mph SW1.8 kmh SW 8.0 mph12.9 kmh 29.81 in1009.5 mb 0.00 in0.0 mm 0.00 in0.0 mm 0.17 in4.3 mm
08:02 PM 84.9°F29.4°C 75.1°F23.9°C 72% 2.2 mph SW3.5 kmh SW 6.0 mph9.7 kmh 29.82 in1009.8 mb 0.00 in0.0 mm 0.00 in0.0 mm 0.17 in4.3 mm
08:07 PM 84.7°F29.3°C 74.7°F23.7°C 72% 1.1 mph WSW1.8 kmh WSW 6.0 mph9.7 kmh 29.82 in1009.8 mb 0.00 in0.0 mm 0.00 in0.0 mm 0.17 in4.3 mm
08:12 PM 84.6°F29.2°C 74.8°F23.8°C 72% 2.2 mph SW3.5 kmh SW 6.0 mph9.7 kmh 29.82 in1009.8 mb 0.00 in0.0 mm 0.00 in0.0 mm 0.17 in4.3 mm
08:17 PM 84.4°F29.1°C 75.0°F23.9°C 73% 1.3 mph WSW2.1 kmh WSW 6.0 mph9.7 kmh 29.82 in1009.8 mb 0.00 in0.0 mm 0.00 in0.0 mm 0.17 in4.3 mm
08:22 PM 84.1°F28.9°C 74.7°F23.7°C 73% 1.5 mph WSW2.4 kmh WSW 4.0 mph6.4 kmh 29.82 in1009.8 mb 0.00 in0.0 mm 0.00 in0.0 mm 0.17 in4.3 mm
08:27 PM 83.7°F28.7°C 74.7°F23.7°C 74% 1.9 mph WSW3.1 kmh WSW 5.0 mph8.0 kmh 29.82 in1009.8 mb 0.00 in0.0 mm 0.00 in0.0 mm 0.17 in4.3 mm
08:32 PM 83.3°F28.5°C 74.1°F23.4°C 74% 1.8 mph WSW2.9 kmh WSW 5.0 mph8.0 kmh 29.82 in1009.8 mb 0.00 in0.0 mm 0.00 in0.0 mm 0.17 in4.3 mm
08:37 PM 82.9°F28.3°C 74.3°F23.5°C 75% 1.5 mph WSW2.4 kmh WSW 5.0 mph8.0 kmh 29.82 in1009.8 mb 0.00 in0.0 mm 0.00 in0.0 mm 0.17 in4.3 mm
08:42 PM 82.7°F28.2°C 74.5°F23.6°C 76% 1.4 mph WSW2.3 kmh WSW 5.0 mph8.0 kmh 29.82 in1009.8 mb 0.00 in0.0 mm 0.00 in0.0 mm 0.17 in4.3 mm
08:47 PM 82.3°F27.9°C 74.2°F23.4°C 76% 1.0 mph SW1.6 kmh SW 5.0 mph8.0 kmh 29.83 in1010.2 mb 0.00 in0.0 mm 0.00 in0.0 mm 0.17 in4.3 mm
08:52 PM 82.1°F27.8°C 74.0°F23.3°C 76% 2.0 mph WSW3.2 kmh WSW 5.0 mph8.0 kmh 29.83 in1010.2 mb 0.00 in0.0 mm 0.00 in0.0 mm 0.17 in4.3 mm
08:57 PM 81.9°F27.7°C 74.1°F23.4°C 77% 1.4 mph WSW2.3 kmh WSW 5.0 mph8.0 kmh 29.83 in1010.2 mb 0.00 in0.0 mm 0.00 in0.0 mm 0.17 in4.3 mm
09:02 PM 81.6°F27.6°C 73.7°F23.2°C 77% 1.0 mph SW1.6 kmh SW 4.0 mph6.4 kmh 29.83 in1010.2 mb 0.00 in0.0 mm 0.00 in0.0 mm 0.17 in4.3 mm
09:07 PM 81.4°F27.4°C 73.5°F23.1°C 77% 2.8 mph W4.5 kmh W 7.0 mph11.3 kmh 29.83 in1010.2 mb 0.00 in0.0 mm 0.00 in0.0 mm 0.17 in4.3 mm
09:12 PM 81.2°F27.3°C 73.8°F23.2°C 78% 1.0 mph WSW1.6 kmh WSW 7.0 mph11.3 kmh 29.84 in1010.5 mb 0.00 in0.0 mm 0.00 in0.0 mm 0.17 in4.3 mm
09:17 PM 80.8°F27.1°C 73.8°F23.2°C 79% 1.0 mph WSW1.6 kmh WSW 7.0 mph11.3 kmh 29.84 in1010.5 mb 0.00 in0.0 mm 0.00 in0.0 mm 0.17 in4.3 mm
09:22 PM 80.5°F26.9°C 73.9°F23.3°C 80% 1.0 mph SW1.6 kmh SW 7.0 mph11.3 kmh 29.85 in1010.8 mb 0.00 in0.0 mm 0.00 in0.0 mm 0.17 in4.3 mm
09:27 PM 80.1°F26.7°C 73.8°F23.2°C 81% Calm Calm 2.0 mph3.2 kmh 29.85 in1010.8 mb 0.00 in0.0 mm 0.00 in0.0 mm 0.17 in4.3 mm
09:32 PM 79.6°F26.4°C 73.7°F23.2°C 82% Calm Calm 2.0 mph3.2 kmh 29.86 in1011.2 mb 0.00 in0.0 mm 0.00 in0.0 mm 0.17 in4.3 mm
09:36 PM 79.2°F26.2°C 73.9°F23.3°C 84% 1.5 mph SSE2.4 kmh SSE 2.0 mph3.2 kmh 29.86 in1011.2 mb 0.00 in0.0 mm 0.00 in0.0 mm 0.17 in4.3 mm
09:41 PM 78.7°F25.9°C 74.2°F23.4°C 86% 1.5 mph SW2.4 kmh SW 3.0 mph4.8 kmh 29.86 in1011.2 mb 0.00 in0.0 mm 0.00 in0.0 mm 0.17 in4.3 mm
09:46 PM 78.5°F25.8°C 74.0°F23.3°C 86% 1.7 mph SW2.7 kmh SW 4.0 mph6.4 kmh 29.87 in1011.5 mb 0.00 in0.0 mm 0.00 in0.0 mm 0.17 in4.3 mm
09:51 PM 78.4°F25.8°C 73.9°F23.3°C 86% 1.2 mph SW1.9 kmh SW 4.0 mph6.4 kmh 29.87 in1011.5 mb 0.00 in0.0 mm 0.00 in0.0 mm 0.17 in4.3 mm
09:56 PM 78.4°F25.8°C 74.2°F23.4°C 87% 1.6 mph SW2.6 kmh SW 5.0 mph8.0 kmh 29.87 in1011.5 mb 0.00 in0.0 mm 0.00 in0.0 mm 0.17 in4.3 mm
10:01 PM 78.2°F25.7°C 74.0°F23.3°C 87% 1.2 mph SW1.9 kmh SW 5.0 mph8.0 kmh 29.88 in1011.9 mb 0.00 in0.0 mm 0.00 in0.0 mm 0.17 in4.3 mm
10:06 PM 78.1°F25.6°C 73.9°F23.3°C 87% 1.2 mph SW1.9 kmh SW 5.0 mph8.0 kmh 29.88 in1011.9 mb 0.00 in0.0 mm 0.00 in0.0 mm 0.17 in4.3 mm
10:11 PM 77.9°F25.5°C 73.7°F23.2°C 87% 1.0 mph SW1.6 kmh SW 5.0 mph8.0 kmh 29.88 in1011.9 mb 0.00 in0.0 mm 0.00 in0.0 mm 0.17 in4.3 mm
10:16 PM 77.7°F25.4°C 73.9°F23.3°C 88% 1.4 mph SSW2.3 kmh SSW 4.0 mph6.4 kmh 29.88 in1011.9 mb 0.00 in0.0 mm 0.00 in0.0 mm 0.17 in4.3 mm
10:21 PM 77.6°F25.3°C 73.8°F23.2°C 88% 1.5 mph SW2.4 kmh SW 4.0 mph6.4 kmh 29.89 in1012.2 mb 0.00 in0.0 mm 0.00 in0.0 mm 0.17 in4.3 mm
10:26 PM 77.5°F25.3°C 73.7°F23.2°C 88% 1.9 mph SW3.1 kmh SW 6.0 mph9.7 kmh 29.89 in1012.2 mb 0.00 in0.0 mm 0.00 in0.0 mm 0.17 in4.3 mm
10:31 PM 77.4°F25.2°C 73.6°F23.1°C 88% 1.4 mph SW2.3 kmh SW 6.0 mph9.7 kmh 29.89 in1012.2 mb 0.00 in0.0 mm 0.00 in0.0 mm 0.17 in4.3 mm
10:36 PM 77.3°F25.2°C 73.5°F23.1°C 88% 1.4 mph SW2.3 kmh SW 6.0 mph9.7 kmh 29.90 in1012.5 mb 0.00 in0.0 mm 0.00 in0.0 mm 0.17 in4.3 mm
10:41 PM 77.2°F25.1°C 73.7°F23.2°C 89% 1.4 mph SW2.3 kmh SW 6.0 mph9.7 kmh 29.90 in1012.5 mb 0.00 in0.0 mm 0.00 in0.0 mm 0.17 in4.3 mm
10:46 PM 77.0°F25.0°C 73.5°F23.1°C 89% 1.4 mph SW2.3 kmh SW 4.0 mph6.4 kmh 29.91 in1012.9 mb 0.00 in0.0 mm 0.00 in0.0 mm 0.17 in4.3 mm
10:51 PM 76.8°F24.9°C 73.6°F23.1°C 90% 1.2 mph SW1.9 kmh SW 4.0 mph6.4 kmh 29.91 in1012.9 mb 0.00 in0.0 mm 0.00 in0.0 mm 0.17 in4.3 mm
10:56 PM 76.7°F24.8°C 73.5°F23.1°C 90% 1.6 mph SW2.6 kmh SW 4.0 mph6.4 kmh 29.91 in1012.9 mb 0.00 in0.0 mm 0.00 in0.0 mm 0.17 in4.3 mm
11:01 PM 76.6°F24.8°C 73.4°F23.0°C 90% 1.5 mph SW2.4 kmh SW 4.0 mph6.4 kmh 29.91 in1012.9 mb 0.00 in0.0 mm 0.00 in0.0 mm 0.17 in4.3 mm
11:06 PM 76.4°F24.7°C 73.2°F22.9°C 90% 1.7 mph SW2.7 kmh SW 4.0 mph6.4 kmh 29.91 in1012.9 mb 0.00 in0.0 mm 0.00 in0.0 mm 0.17 in4.3 mm
11:11 PM 76.4°F24.7°C 73.6°F23.1°C 91% 1.8 mph SW2.9 kmh SW 4.0 mph6.4 kmh 29.92 in1013.2 mb 0.00 in0.0 mm 0.00 in0.0 mm 0.17 in4.3 mm
11:16 PM 76.3°F24.6°C 73.5°F23.1°C 91% 1.9 mph SW3.1 kmh SW 4.0 mph6.4 kmh 29.92 in1013.2 mb 0.00 in0.0 mm 0.00 in0.0 mm 0.17 in4.3 mm
11:21 PM 76.3°F24.6°C 73.5°F23.1°C 91% 1.9 mph SW3.1 kmh SW 6.0 mph9.7 kmh 29.92 in1013.2 mb 0.00 in0.0 mm 0.00 in0.0 mm 0.17 in4.3 mm
11:26 PM 76.2°F24.6°C 73.4°F23.0°C 91% 1.2 mph SW1.9 kmh SW 6.0 mph9.7 kmh 29.92 in1013.2 mb 0.00 in0.0 mm 0.00 in0.0 mm 0.17 in4.3 mm
11:31 PM 76.1°F24.5°C 73.3°F22.9°C 91% 1.0 mph SW1.6 kmh SW 6.0 mph9.7 kmh 29.92 in1013.2 mb 0.00 in0.0 mm 0.00 in0.0 mm 0.17 in4.3 mm
11:36 PM 76.0°F24.4°C 73.5°F23.1°C 92% 1.8 mph SW2.9 kmh SW 6.0 mph9.7 kmh 29.92 in1013.2 mb 0.00 in0.0 mm 0.00 in0.0 mm 0.17 in4.3 mm
11:41 PM 76.0°F24.4°C 73.5°F23.1°C 92% 1.8 mph SW2.9 kmh SW 5.0 mph8.0 kmh 29.92 in1013.2 mb 0.00 in0.0 mm 0.00 in0.0 mm 0.17 in4.3 mm
11:46 PM 76.0°F24.4°C 73.5°F23.1°C 92% 1.7 mph SW2.7 kmh SW 5.0 mph8.0 kmh 29.92 in1013.2 mb 0.00 in0.0 mm 0.00 in0.0 mm 0.17 in4.3 mm
11:51 PM 76.0°F24.4°C 73.5°F23.1°C 92% 2.4 mph WSW3.9 kmh WSW 6.0 mph9.7 kmh 29.92 in1013.2 mb 0.00 in0.0 mm 0.00 in0.0 mm 0.17 in4.3 mm
11:56 PM 75.9°F24.4°C 73.4°F23.0°C 92% 1.8 mph WSW2.9 kmh WSW 6.0 mph9.7 kmh 29.93 in1013.5 mb 0.00 in0.0 mm 0.00 in0.0 mm 0.17 in4.3 mm